This is the latest recevied weather packets stored in our database for station/object DG4MND-4. If no packets are shown the sender has not sent any weather packets the latest 1 day(s).
| Time | Temp. | Humidity | Pressure | Rain* | Wind** | Luminosity | Snow |
|---|---|---|---|---|---|---|---|
| 1777967453 | 17.22° C | 71% | 1008.2 hPa | 0 mm | 0.45 m/s, 158° | - | - |
| 1777966850 | 16.11° C | 74% | 1008.3 hPa | 0 mm | 0 m/s | - | - |
| 1777966247 | 15° C | 76% | 1008.4 hPa | 0 mm | 0 m/s | - | - |
| 1777965640 | 15° C | 75% | 1008.5 hPa | 0 mm | 0 m/s | - | - |
| 1777965037 | 16.11° C | 72% | 1008.7 hPa | 0 mm | 0 m/s | - | - |
| 1777964436 | 15.56° C | 76% | 1008.7 hPa | 0 mm | 0 m/s | - | - |
| 1777963860 | 13.89° C | 80% | 1009 hPa | 0 mm | 0 m/s | - | - |
| 1777963256 | 13.89° C | 82% | 1009 hPa | 0 mm | 0.45 m/s, 180° | - | - |
| 1777962053 | 12.22° C | 86% | 1009.2 hPa | 0 mm | 0.45 m/s, 144° | - | - |
| 1777961448 | 11.11° C | 89% | 1009.2 hPa | 0 mm | 0.45 m/s, 154° | - | - |
| 1777960842 | 11.67° C | 86% | 1009.4 hPa | 0 mm | 0.45 m/s, 157° | - | - |
| 1777959636 | 10.56° C | 91% | 1009.3 hPa | 0 mm | 0 m/s | - | - |
| 1777958459 | 10° C | 94% | 1009.1 hPa | 0 mm | 0 m/s | - | - |
| 1777957864 | 8.89° C | 97% | 1009.2 hPa | 0 mm | 0 m/s | - | - |
| 1777957252 | 8.33° C | 98% | 1009.2 hPa | 0 mm | 0 m/s | - | - |
| 1777951824 | 7.78° C | 98% | 1009.7 hPa | 0 mm | 0 m/s | - | - |
| 1777940416 | 10.56° C | 86% | 1010.9 hPa | 0 mm | 0 m/s | - | - |
| 1777938063 | 11.11° C | 80% | 1011.3 hPa | 0 mm | 0 m/s | - | - |
| 1777937460 | 11.11° C | 79% | 1011.3 hPa | 0 mm | 0 m/s | - | - |
| 1777935649 | 11.67° C | 81% | 1011.4 hPa | 0 mm | 0 m/s | - | - |
| 1777931429 | 14.44° C | 74% | 1011.8 hPa | 0 mm | 0 m/s | - | - |
| 1777930822 | 14.44° C | 73% | 1011.9 hPa | 0 mm | 0 m/s | - | - |
* Rain latest hour (hover to see other rain measurements)
** Current wind speed in m/s (hover to see current wind gust speed)